createdAt,value
2018-09-01T00:01:30.471Z,14.80
2018-09-01T00:06:27.903Z,14.71
2018-09-01T00:11:25.303Z,14.72
2018-09-01T00:16:22.980Z,14.64
2018-09-01T00:21:20.483Z,14.65
2018-09-01T00:26:17.894Z,14.54
2018-09-01T00:31:15.343Z,14.32
2018-09-01T00:36:12.716Z,14.53
2018-09-01T00:41:10.203Z,14.40
2018-09-01T00:46:07.694Z,14.54
2018-09-01T00:51:05.085Z,14.24
2018-09-01T00:56:02.604Z,13.95
2018-09-01T01:01:00.009Z,13.61
2018-09-01T01:05:57.405Z,13.46
2018-09-01T01:10:54.822Z,12.91
2018-09-01T01:15:52.339Z,13.17
2018-09-01T01:20:49.730Z,12.42
2018-09-01T01:25:47.370Z,12.20
2018-09-01T01:30:44.859Z,12.01
2018-09-01T01:35:42.275Z,12.23
2018-09-01T01:40:39.664Z,11.76
2018-09-01T01:45:37.687Z,12.02
2018-09-01T01:50:35.078Z,11.61
2018-09-01T01:55:32.463Z,11.26
2018-09-01T02:00:29.844Z,11.43
2018-09-01T02:05:31.115Z,11.64
2018-09-01T02:10:28.498Z,11.25
2018-09-01T02:15:25.903Z,10.81
2018-09-01T02:20:23.336Z,10.58
2018-09-01T02:25:20.752Z,10.49
2018-09-01T02:30:18.126Z,10.32
2018-09-01T02:35:15.503Z,10.81
2018-09-01T02:40:12.971Z,10.89
2018-09-01T02:45:11.291Z,10.73
2018-09-01T02:50:09.756Z,10.63
2018-09-01T02:55:07.175Z,10.76
2018-09-01T03:00:37.539Z,10.53
2018-09-01T03:05:34.919Z,10.08
2018-09-01T03:10:32.299Z,10.62
2018-09-01T03:15:29.674Z,10.50
2018-09-01T03:20:27.072Z,10.20
2018-09-01T03:25:24.458Z,9.61
2018-09-01T03:30:21.837Z,9.39
2018-09-01T03:35:19.215Z,9.55
2018-09-01T03:40:16.605Z,9.65
2018-09-01T03:45:14.022Z,9.45
2018-09-01T03:50:12.046Z,9.17
2018-09-01T03:55:09.469Z,8.96
2018-09-01T04:00:06.958Z,9.20
2018-09-01T04:05:04.810Z,9.02
2018-09-01T04:10:02.228Z,8.81
2018-09-01T04:14:59.614Z,8.84
2018-09-01T04:19:58.070Z,8.58
2018-09-01T04:24:55.484Z,8.49
2018-09-01T04:29:53.358Z,8.50
2018-09-01T04:34:50.760Z,8.39
2018-09-01T04:39:48.151Z,8.49
2018-09-01T04:44:45.589Z,8.46
2018-09-01T04:49:45.697Z,8.37
2018-09-01T04:54:43.236Z,8.44
2018-09-01T04:59:40.691Z,8.71
2018-09-01T05:04:38.080Z,8.55
2018-09-01T05:09:35.490Z,8.71
2018-09-01T05:14:32.880Z,8.88
2018-09-01T05:19:37.103Z,9.20
2018-09-01T05:24:34.548Z,9.10
2018-09-01T05:29:32.015Z,10.36
2018-09-01T05:34:29.666Z,12.77
2018-09-01T05:39:27.116Z,14.45
2018-09-01T05:44:24.531Z,15.65
2018-09-01T05:49:27.662Z,16.85
2018-09-01T05:54:25.192Z,17.81
2018-09-01T05:59:22.999Z,16.35
2018-09-01T06:04:20.444Z,17.64
2018-09-01T06:09:17.831Z,16.85
2018-09-01T06:14:15.234Z,15.96
2018-09-01T06:19:13.213Z,15.05
2018-09-01T06:24:10.792Z,14.92
2018-09-01T06:29:10.866Z,14.21
2018-09-01T06:34:08.322Z,14.14
2018-09-01T06:39:06.479Z,14.22
2018-09-01T06:44:05.606Z,14.25
2018-09-01T06:49:03.248Z,14.53
2018-09-01T06:54:00.672Z,13.96
2018-09-01T06:58:58.127Z,14.43
2018-09-01T07:03:55.539Z,14.74
2018-09-01T07:08:53.016Z,15.05
2018-09-01T07:13:50.399Z,14.67
2018-09-01T07:18:47.886Z,14.91
2018-09-01T07:23:45.267Z,15.48
2018-09-01T07:28:44.744Z,14.78
2018-09-01T07:33:42.147Z,15.53
2018-09-01T07:38:49.069Z,15.51
2018-09-01T07:43:50.489Z,16.27
2018-09-01T07:48:55.177Z,15.88
2018-09-01T07:53:52.651Z,15.49
2018-09-01T07:58:50.625Z,15.46
2018-09-01T08:03:48.156Z,15.79
2018-09-01T08:08:45.606Z,15.94
2018-09-01T08:13:43.153Z,16.81
2018-09-01T08:18:40.512Z,16.60
2018-09-01T08:23:38.422Z,17.06
2018-09-01T08:28:35.999Z,16.72
2018-09-01T08:33:33.419Z,16.48
2018-09-01T08:38:30.823Z,16.87
2018-09-01T08:43:28.215Z,17.44
2018-09-01T08:48:25.642Z,17.19
2018-09-01T08:53:24.248Z,17.68
2018-09-01T08:58:24.130Z,18.86
2018-09-01T09:03:21.604Z,19.66
2018-09-01T09:08:19.018Z,18.27
2018-09-01T09:13:16.435Z,18.47
2018-09-01T09:18:13.819Z,17.76
2018-09-01T09:23:11.261Z,19.08
2018-09-01T09:28:08.659Z,18.94
2018-09-01T09:33:07.600Z,18.09
2018-09-01T09:38:08.180Z,17.75
2018-09-01T09:43:11.418Z,18.08
2018-09-01T09:48:08.910Z,17.90
2018-09-01T09:53:06.409Z,17.89
2018-09-01T09:58:04.108Z,18.56
2018-09-01T10:03:01.891Z,18.86
2018-09-01T10:07:59.355Z,20.97
2018-09-01T10:12:56.796Z,20.19
2018-09-01T10:17:54.299Z,19.97
2018-09-01T10:22:52.311Z,20.34
2018-09-01T10:27:49.738Z,19.23
2018-09-01T10:32:47.174Z,18.19
2018-09-01T10:37:44.672Z,17.97
2018-09-01T10:42:42.092Z,17.88
2018-09-01T10:47:40.089Z,17.98
2018-09-01T10:52:38.333Z,19.09
2018-09-01T10:57:36.306Z,20.48
2018-09-01T11:02:33.719Z,20.96
2018-09-01T11:07:31.767Z,21.02
2018-09-01T11:12:29.271Z,21.25
2018-09-01T11:17:26.684Z,21.69
2018-09-01T11:22:24.287Z,20.31
2018-09-01T11:27:22.349Z,21.02
2018-09-01T11:32:19.763Z,19.98
2018-09-01T11:37:17.147Z,19.85
2018-09-01T11:42:14.539Z,20.19
2018-09-01T11:47:12.718Z,20.57
2018-09-01T11:52:10.124Z,21.61
2018-09-01T11:57:07.672Z,21.52
2018-09-01T12:02:05.203Z,23.25
2018-09-01T12:07:02.639Z,22.15
2018-09-01T12:12:00.067Z,21.55
2018-09-01T12:16:57.483Z,19.67
2018-09-01T12:21:54.924Z,19.57
2018-09-01T12:26:52.303Z,19.33
2018-09-01T12:31:49.703Z,19.30
2018-09-01T12:36:47.117Z,19.46
2018-09-01T12:41:44.530Z,19.62
2018-09-01T12:46:42.231Z,20.71
2018-09-01T12:51:39.654Z,21.55
2018-09-01T12:56:37.865Z,20.59
2018-09-01T13:01:35.567Z,20.14
2018-09-01T13:06:33.076Z,19.83
2018-09-01T13:11:30.503Z,19.99
2018-09-01T13:16:28.047Z,20.79
2018-09-01T13:21:25.518Z,21.24
2018-09-01T13:26:22.938Z,21.25
2018-09-01T13:31:20.424Z,22.19
2018-09-01T13:36:17.857Z,22.79
2018-09-01T13:41:15.915Z,23.24
2018-09-01T13:46:13.407Z,22.17
2018-09-01T13:51:10.858Z,20.95
2018-09-01T13:56:08.266Z,20.80
2018-09-01T14:01:05.697Z,20.48
2018-09-01T14:06:03.225Z,20.43
2018-09-01T14:11:00.618Z,19.99
2018-09-01T14:15:58.010Z,20.06
2018-09-01T14:20:55.427Z,20.48
2018-09-01T14:25:52.839Z,21.90
2018-09-01T14:30:50.495Z,22.01
2018-09-01T14:35:48.093Z,20.58
2018-09-01T14:40:45.878Z,21.19
2018-09-01T14:45:43.294Z,21.44
2018-09-01T14:50:40.732Z,21.24
2018-09-01T14:55:38.715Z,21.62
2018-09-01T15:00:36.255Z,21.61
2018-09-01T15:05:33.947Z,21.80
2018-09-01T15:10:31.324Z,21.26
2018-09-01T15:15:31.281Z,21.24
2018-09-01T15:20:33.568Z,20.76
2018-09-01T15:25:31.702Z,20.68
2018-09-01T15:30:31.778Z,20.49
2018-09-01T15:35:29.464Z,20.74
2018-09-01T15:40:27.407Z,21.22
2018-09-01T15:45:31.097Z,21.77
2018-09-01T15:50:34.750Z,21.38
2018-09-01T15:55:32.314Z,21.96
2018-09-01T16:00:30.245Z,21.65
2018-09-01T16:05:28.046Z,21.69
2018-09-01T16:10:26.929Z,21.63
2018-09-01T16:15:28.132Z,21.97
2018-09-01T16:20:30.231Z,21.29
2018-09-01T16:25:31.379Z,21.36
2018-09-01T16:30:28.890Z,21.40
2018-09-01T16:35:26.311Z,21.27
2018-09-01T16:40:25.015Z,21.33
2018-09-01T16:45:23.331Z,21.63
2018-09-01T16:50:22.894Z,22.07
2018-09-01T16:55:21.811Z,22.02
2018-09-01T17:00:21.042Z,21.93
2018-09-01T17:05:18.588Z,21.78
2018-09-01T17:10:18.010Z,21.86
2018-09-01T17:15:15.627Z,22.11
2018-09-01T17:20:14.054Z,21.65
2018-09-01T17:25:11.448Z,20.81
2018-09-01T17:30:08.955Z,20.83
2018-09-01T17:35:06.378Z,20.52
2018-09-01T17:40:03.863Z,20.42
2018-09-01T17:45:01.298Z,19.74
2018-09-01T17:49:59.977Z,19.52
2018-09-01T17:54:57.471Z,19.39
2018-09-01T17:59:54.899Z,19.17
2018-09-01T18:04:52.608Z,18.97
2018-09-01T18:09:50.215Z,18.74
2018-09-01T18:14:47.636Z,18.61
2018-09-01T18:19:50.779Z,18.45
2018-09-01T18:24:48.214Z,18.22
2018-09-01T18:29:49.314Z,18.15
2018-09-01T18:34:54.423Z,17.93
2018-09-01T18:39:52.527Z,17.91
2018-09-01T18:44:49.963Z,17.65
2018-09-01T18:49:56.333Z,17.67
2018-09-01T18:54:54.474Z,17.47
2018-09-01T18:59:51.908Z,17.60
2018-09-01T19:04:49.428Z,17.42
2018-09-01T19:09:46.755Z,17.01
2018-09-01T19:14:44.179Z,17.14
2018-09-01T19:19:47.915Z,17.28
2018-09-01T19:24:45.423Z,16.97
2018-09-01T19:29:42.807Z,16.74
2018-09-01T19:34:40.303Z,17.00
2018-09-01T19:39:37.745Z,17.13
2018-09-01T19:44:35.226Z,17.02
2018-09-01T19:49:36.628Z,16.95
2018-09-01T19:54:34.355Z,16.91
2018-09-01T19:59:33.618Z,16.81
2018-09-01T20:04:31.325Z,16.84
2018-09-01T20:09:28.725Z,16.82
2018-09-01T20:14:26.303Z,16.90
2018-09-01T20:19:30.431Z,16.89
2018-09-01T20:24:27.866Z,16.78
2018-09-01T20:29:25.337Z,17.02
2018-09-01T20:34:22.718Z,16.85
2018-09-01T20:39:25.555Z,16.76
2018-09-01T20:44:22.955Z,16.67
2018-09-01T20:49:25.188Z,16.57
2018-09-01T20:54:22.759Z,16.54
2018-09-01T20:59:20.176Z,16.42
2018-09-01T21:04:17.685Z,16.36
2018-09-01T21:09:15.043Z,16.29
2018-09-01T21:14:12.489Z,16.20
2018-09-01T21:19:09.947Z,16.13
2018-09-01T21:24:07.339Z,16.02
2018-09-01T21:29:04.816Z,16.03
2018-09-01T21:34:02.182Z,15.97
2018-09-01T21:38:59.566Z,15.94
2018-09-01T21:43:56.990Z,15.94
2018-09-01T21:48:54.466Z,15.90
2018-09-01T21:53:51.871Z,15.85
2018-09-01T21:58:49.334Z,15.80
2018-09-01T22:03:47.156Z,15.76
2018-09-01T22:08:44.530Z,15.70
2018-09-01T22:13:42.681Z,15.68
2018-09-01T22:18:40.047Z,15.62
2018-09-01T22:23:37.752Z,15.56
2018-09-01T22:28:35.303Z,15.47
2018-09-01T22:33:32.691Z,15.53
2018-09-01T22:38:30.523Z,15.52
2018-09-01T22:43:28.489Z,15.37
2018-09-01T22:48:25.956Z,15.46
2018-09-01T22:53:23.347Z,15.40
2018-09-01T22:58:21.338Z,15.41
2018-09-01T23:03:18.719Z,15.37
2018-09-01T23:08:16.139Z,15.32
2018-09-01T23:13:14.101Z,15.28
2018-09-01T23:18:11.476Z,15.23
2018-09-01T23:23:08.883Z,15.23
2018-09-01T23:28:06.267Z,15.12
2018-09-01T23:33:03.651Z,15.11
2018-09-01T23:38:01.066Z,15.15
2018-09-01T23:42:58.436Z,15.09
2018-09-01T23:47:55.822Z,15.09
2018-09-01T23:52:53.225Z,15.04
2018-09-01T23:57:50.607Z,15.05
